Terminal Aerodrome Forecast
Issued by NWS

Home | Current Version | Previous Version | Text Only | Print | Product List | Glossary On
Versions: 1 2 3 4 5 6 7 8 9 10 11 12 13 14 15 16 17
314
FTUS46 KMFR 141720
TAFOTH
TAF
KOTH 141720Z 1418/1518 21011G17KT 5SM -RA BR BKN009 OVC020
     FM142200 20006KT P6SM BKN008 OVC020
     FM150500 18007KT 5SM BR BKN004 OVC008=

USA.gov is the U.S. government's official web portal to all federal, state and local government web resources and services.